KDVN/DVN METAR and TAF weather

Enter ICAO airport designator
Station Type Date Time Source
KDVN METAR 2018/12/12 23:52 UTC NOAA

KDVN 122352Z AUTO 26005KT 10SM CLR M01/M04 A2990 RMK AO2 SLP128 T10111039 10022 21011 51020


Station Type Date Time Source
KDVN Decoded METAR 2018/12/12 23:52 UTC NOAA

DAVENPORT MUNICIPAL AIRPORT, IA, United States (KDVN) 41-37N 90-35W 228M
Dec 12, 2018 - 06:52 PM EST / 2018.12.12 2352 UTC
Wind: from the W (260 degrees) at 6 MPH (5 KT):0
Visibility: 10 mile(s):0
Sky conditions: clear
Temperature: 30.0 F (-1.1 C)
Windchill: 23 F (-5 C):1
Dew Point: 25.0 F (-3.9 C)
Relative Humidity: 81%
Pressure (altimeter): 29.9 in. Hg (1012 hPa)
Pressure tendency: 0.06 inches (2.0 hPa) higher than three hours ago
ob: KDVN 122352Z AUTO 26005KT 10SM CLR M01/M04 A2990 RMK AO2 SLP128 T10111039 10022 21011 51020
cycle: 0

Station Type Date Time Source
KDVN TAF UTC NOAA

Error!


Example: see airport list